Time;durP1;ratioP1;P1;durP2;ratioP2;P2;SDS_P1;SDS_P2;PMS_P1;PMS_P2;Temp;Humidity;BMP_temperature;BMP_pressure;BME280_temperature;BME280_humidity;BME280_pressure;Samples;Min_cycle;Max_cycle;Signal;HPM_P1;HPM_P2
2021/12/20 00:02:00;;;;;;;23.95;5.55;;;6.10;99.90;;;;;;5051271;28;20048;-80
2021/12/20 00:04:27;;;;;;;27.38;6.05;;;6.10;99.90;;;;;;5046293;28;20102;-80
2021/12/20 00:06:53;;;;;;;27.33;5.75;;;6.00;99.90;;;;;;5047832;28;20055;-80
2021/12/20 00:09:20;;;;;;;19.88;5.65;;;6.00;99.90;;;;;;5041034;28;20045;-80
2021/12/20 00:11:46;;;;;;;27.00;5.72;;;5.90;99.90;;;;;;5036085;28;20049;-80
2021/12/20 00:14:13;;;;;;;19.65;5.72;;;5.90;99.90;;;;;;5042269;28;20045;-80
2021/12/20 00:16:39;;;;;;;20.60;5.25;;;6.00;99.90;;;;;;5044580;28;20071;-81
2021/12/20 00:19:09;;;;;;;18.73;4.93;;;6.00;99.90;;;;;;5050135;28;20056;-79
2021/12/20 00:21:35;;;;;;;33.00;5.50;;;5.90;99.90;;;;;;5042659;28;20042;-80
2021/12/20 00:24:02;;;;;;;25.23;5.60;;;5.80;99.90;;;;;;5041668;28;20049;-80
2021/12/20 00:26:28;;;;;;;28.05;6.20;;;5.80;99.90;;;;;;5037822;28;20072;-80
2021/12/20 00:28:55;;;;;;;23.35;5.72;;;5.60;99.90;;;;;;5050788;28;20929;-81
2021/12/20 00:31:21;;;;;;;27.58;5.70;;;5.50;99.90;;;;;;5046229;28;20053;-80
2021/12/20 00:33:48;;;;;;;31.63;6.10;;;5.40;99.90;;;;;;5040270;28;20063;-81
2021/12/20 00:36:21;;;;;;;21.55;6.45;;;5.40;99.90;;;;;;5042494;28;20504;-81
2021/12/20 00:41:31;;;;;;;16.10;4.88;;;5.30;99.90;;;;;;5044936;28;20053;-80
2021/12/20 00:43:59;;;;;;;34.90;5.57;;;5.30;99.90;;;;;;5042848;28;20076;-81
2021/12/20 00:46:25;;;;;;;22.40;6.60;;;5.30;99.90;;;;;;5040877;28;20133;-81
2021/12/20 00:48:52;;;;;;;24.48;5.80;;;5.30;99.90;;;;;;5052133;28;20045;-80
2021/12/20 00:51:19;;;;;;;26.55;5.72;;;5.50;99.90;;;;;;5046975;28;20052;-80
2021/12/20 00:53:45;;;;;;;17.98;4.13;;;5.60;99.90;;;;;;5044676;28;20420;-80
2021/12/20 00:56:12;;;;;;;21.88;5.38;;;5.30;99.90;;;;;;5049885;28;20496;-81
2021/12/20 00:58:38;;;;;;;19.05;5.05;;;5.20;99.90;;;;;;5040504;28;20048;-80
2021/12/20 01:01:06;;;;;;;22.13;4.38;;;5.10;99.90;;;;;;5047236;28;20045;-80
2021/12/20 01:03:32;;;;;;;28.52;6.05;;;5.10;99.90;;;;;;5045911;28;20048;-80
2021/12/20 01:05:59;;;;;;;29.85;5.15;;;5.00;99.90;;;;;;5041281;28;20053;-80
2021/12/20 01:08:27;;;;;;;26.73;4.90;;;4.90;99.90;;;;;;5041266;28;20106;-80
2021/12/20 01:10:55;;;;;;;23.02;5.57;;;4.90;99.90;;;;;;5049092;28;20483;-80
2021/12/20 01:13:23;;;;;;;20.50;6.05;;;4.90;99.90;;;;;;5041512;28;20107;-80
2021/12/20 01:15:52;;;;;;;26.50;4.85;;;4.90;99.90;;;;;;5046746;28;20053;-81
2021/12/20 01:18:19;;;;;;;22.35;4.00;;;4.90;99.90;;;;;;5045995;28;20053;-81
2021/12/20 01:20:45;;;;;;;24.75;4.70;;;4.90;99.90;;;;;;5045256;28;20560;-81
2021/12/20 01:23:12;;;;;;;21.42;4.25;;;4.90;99.90;;;;;;5042461;28;20064;-80
2021/12/20 01:25:38;;;;;;;22.95;5.20;;;4.80;99.90;;;;;;5038689;28;20053;-80
2021/12/20 01:28:06;;;;;;;22.65;5.15;;;4.80;99.90;;;;;;5042463;28;20504;-81
2021/12/20 01:30:33;;;;;;;14.52;3.88;;;4.80;99.90;;;;;;5049976;28;20053;-81
2021/12/20 01:32:59;;;;;;;25.40;3.97;;;4.70;99.90;;;;;;5038858;28;20083;-81
2021/12/20 01:35:26;;;;;;;31.60;5.00;;;4.70;99.90;;;;;;5045519;28;20053;-81
2021/12/20 01:37:52;;;;;;;13.70;2.97;;;4.70;99.90;;;;;;5040555;28;20055;-81
2021/12/20 01:40:19;;;;;;;16.80;3.97;;;4.60;99.90;;;;;;5039569;28;20060;-80
2021/12/20 01:42:45;;;;;;;13.60;4.30;;;4.50;99.90;;;;;;5044859;28;20056;-81
2021/12/20 01:45:12;;;;;;;17.05;3.80;;;4.50;99.90;;;;;;5044055;28;20056;-80
2021/12/20 01:47:43;;;;;;;13.63;3.92;;;4.50;99.90;;;;;;5039771;28;20041;-81
2021/12/20 01:50:16;;;;;;;21.25;4.40;;;4.50;99.90;;;;;;5045320;28;20063;-81
2021/12/20 01:52:43;;;;;;;17.67;4.75;;;4.40;99.90;;;;;;5039331;28;20057;-80
2021/12/20 01:55:10;;;;;;;15.80;3.83;;;4.20;99.90;;;;;;5046090;28;20048;-81
2021/12/20 01:57:36;;;;;;;9.43;3.35;;;4.20;99.90;;;;;;5042404;28;20045;-81
2021/12/20 02:00:03;;;;;;;17.17;4.25;;;4.20;99.90;;;;;;5044833;28;20041;-79
2021/12/20 02:02:29;;;;;;;15.25;4.05;;;4.20;99.90;;;;;;5045570;28;20056;-79
2021/12/20 02:05:04;;;;;;;16.63;4.93;;;4.10;99.90;;;;;;5042913;28;20055;-80
2021/12/20 02:07:37;;;;;;;22.75;4.30;;;4.10;99.90;;;;;;5035208;28;20053;-80
2021/12/20 02:10:03;;;;;;;12.45;3.15;;;4.10;99.90;;;;;;5046015;28;20126;-80
2021/12/20 02:12:30;;;;;;;19.67;3.80;;;4.10;99.90;;;;;;5044570;28;20049;-80
2021/12/20 02:14:56;;;;;;;17.98;4.60;;;4.10;99.90;;;;;;5046383;28;20080;-80
2021/12/20 02:17:23;;;;;;;12.35;4.68;;;4.00;99.90;;;;;;5049745;28;20480;-79
2021/12/20 02:19:49;;;;;;;20.67;4.25;;;3.90;99.90;;;;;;5039604;28;20050;-80
2021/12/20 02:22:16;;;;;;;14.25;3.20;;;3.90;99.90;;;;;;5054609;28;20053;-80
2021/12/20 02:24:42;;;;;;;11.25;3.28;;;3.80;99.90;;;;;;5048048;28;20045;-80
2021/12/20 02:27:09;;;;;;;13.15;3.10;;;3.80;99.90;;;;;;5043508;28;20061;-80
2021/12/20 02:29:45;;;;;;;25.63;4.97;;;3.80;99.90;;;;;;5044707;28;20132;-80
2021/12/20 02:37:40;;;;;;;23.25;4.47;;;3.70;99.90;;;;;;5049888;28;20048;-80
2021/12/20 02:40:07;;;;;;;19.13;4.55;;;3.50;99.90;;;;;;5039797;28;20045;-80
2021/12/20 02:42:34;;;;;;;11.07;3.70;;;3.50;99.90;;;;;;5049294;28;20053;-80
2021/12/20 02:45:11;;;;;;;13.02;3.38;;;3.40;99.90;;;;;;5048328;28;20154;-80
2021/12/20 02:47:38;;;;;;;11.00;3.38;;;3.40;99.90;;;;;;5046054;28;20057;-80
2021/12/20 02:50:04;;;;;;;15.98;3.78;;;3.40;99.90;;;;;;5036840;28;20048;-80
2021/12/20 02:52:31;;;;;;;20.00;3.70;;;3.30;99.90;;;;;;5035382;28;20056;-81
2021/12/20 02:54:57;;;;;;;9.68;3.05;;;3.40;99.90;;;;;;5047610;28;20048;-80
2021/12/20 02:57:24;;;;;;;15.70;3.10;;;3.30;99.90;;;;;;5048732;28;20129;-81
2021/12/20 02:59:51;;;;;;;18.55;4.05;;;3.30;99.90;;;;;;5047694;28;20045;-81
2021/12/20 03:02:18;;;;;;;14.90;3.55;;;3.30;99.90;;;;;;5040580;28;20046;-80
2021/12/20 03:04:44;;;;;;;16.15;4.10;;;3.30;99.90;;;;;;5040792;28;20155;-80
2021/12/20 03:07:12;;;;;;;17.90;4.25;;;3.20;99.90;;;;;;5046577;28;20053;-79
2021/12/20 03:09:40;;;;;;;24.80;5.45;;;3.20;99.90;;;;;;5040467;28;20056;-81
2021/12/20 03:12:06;;;;;;;22.67;5.00;;;3.10;99.90;;;;;;5041153;28;20132;-81
2021/12/20 03:14:36;;;;;;;20.25;4.97;;;3.00;99.90;;;;;;5044746;28;20042;-80
2021/12/20 03:17:02;;;;;;;21.42;4.75;;;3.00;99.90;;;;;;5051589;28;20370;-80
2021/12/20 03:19:29;;;;;;;19.75;4.55;;;3.00;99.90;;;;;;5043130;28;20527;-80
2021/12/20 03:21:55;;;;;;;15.75;3.80;;;3.00;99.90;;;;;;5039693;28;20053;-82
2021/12/20 03:24:22;;;;;;;19.25;4.10;;;3.00;99.90;;;;;;5047115;28;20061;-81
2021/12/20 03:26:49;;;;;;;14.30;3.50;;;3.10;99.90;;;;;;5039186;28;20493;-80
2021/12/20 03:29:15;;;;;;;21.73;4.38;;;3.10;99.90;;;;;;5048724;28;20049;-81
2021/12/20 03:31:42;;;;;;;14.77;3.60;;;3.00;99.90;;;;;;5047867;28;20045;-81
2021/12/20 03:34:08;;;;;;;10.18;4.28;;;3.00;99.90;;;;;;5044699;28;20052;-80
2021/12/20 03:36:35;;;;;;;19.35;4.95;;;2.90;99.90;;;;;;5042326;28;20052;-80
2021/12/20 03:39:01;;;;;;;9.77;3.83;;;2.90;99.90;;;;;;5042352;28;20045;-81
2021/12/20 03:41:28;;;;;;;19.25;3.67;;;2.80;99.90;;;;;;5044479;28;20053;-81
2021/12/20 03:43:54;;;;;;;14.32;4.45;;;2.80;99.90;;;;;;5044299;28;20080;-81
2021/12/20 03:46:21;;;;;;;20.33;3.88;;;2.80;99.90;;;;;;5046235;28;20401;-81
2021/12/20 03:48:47;;;;;;;26.40;4.95;;;2.80;99.90;;;;;;5045632;28;20060;-81
2021/12/20 03:51:14;;;;;;;20.70;4.57;;;2.80;99.90;;;;;;5049530;28;20044;-80
2021/12/20 03:53:40;;;;;;;8.15;3.28;;;2.70;99.90;;;;;;5039553;28;20052;-81
2021/12/20 03:56:07;;;;;;;14.18;4.30;;;2.70;99.90;;;;;;5047532;28;20056;-81
2021/12/20 03:58:33;;;;;;;19.67;4.45;;;2.70;99.90;;;;;;5051587;28;20057;-81
2021/12/20 04:01:00;;;;;;;13.95;3.20;;;2.70;99.90;;;;;;5036931;28;20483;-81
2021/12/20 04:03:29;;;;;;;15.15;4.47;;;2.70;99.90;;;;;;5040573;28;20056;-81
2021/12/20 04:05:56;;;;;;;16.38;3.50;;;2.60;99.90;;;;;;5041178;28;20059;-81
2021/12/20 04:08:22;;;;;;;9.18;2.42;;;2.60;99.90;;;;;;5048500;28;20056;-82
2021/12/20 04:10:49;;;;;;;12.38;1.83;;;2.50;99.90;;;;;;5049382;28;20053;-81
2021/12/20 04:13:15;;;;;;;5.85;2.65;;;2.60;99.90;;;;;;5043711;28;20358;-81
2021/12/20 04:15:42;;;;;;;8.63;2.72;;;2.50;99.90;;;;;;5050977;28;20397;-82
2021/12/20 04:18:08;;;;;;;8.85;2.88;;;2.50;99.90;;;;;;5044055;28;20576;-81
2021/12/20 04:20:35;;;;;;;7.72;2.38;;;2.50;99.90;;;;;;5050455;28;20049;-82
2021/12/20 04:23:01;;;;;;;8.20;2.00;;;2.40;99.90;;;;;;5035513;28;20052;-81
2021/12/20 04:25:28;;;;;;;10.48;2.92;;;2.40;99.90;;;;;;5048546;28;20044;-82
2021/12/20 04:27:54;;;;;;;10.00;2.97;;;2.40;99.90;;;;;;5042330;28;20064;-82
2021/12/20 04:30:21;;;;;;;8.70;2.50;;;2.30;99.90;;;;;;5052076;28;20052;-81
2021/12/20 04:32:48;;;;;;;5.32;2.35;;;2.30;99.90;;;;;;5054431;28;20132;-82
2021/12/20 04:35:14;;;;;;;14.82;2.45;;;2.20;99.90;;;;;;5043636;28;20050;-82
2021/12/20 04:37:42;;;;;;;9.48;3.08;;;2.20;99.90;;;;;;5043132;28;20053;-82
2021/12/20 04:40:12;;;;;;;6.63;2.67;;;2.20;99.90;;;;;;5042702;28;20059;-82
2021/12/20 04:42:38;;;;;;;10.32;3.28;;;2.20;99.90;;;;;;5046278;28;20087;-81
2021/12/20 04:45:05;;;;;;;6.60;2.72;;;2.20;99.90;;;;;;5040955;28;20053;-81
2021/12/20 04:47:31;;;;;;;11.48;2.72;;;2.20;99.90;;;;;;5036941;28;20049;-82
2021/12/20 04:49:59;;;;;;;12.57;2.55;;;2.10;99.90;;;;;;5056116;28;20052;-82
2021/12/20 04:52:26;;;;;;;4.55;2.63;;;2.10;99.90;;;;;;5081103;28;20080;-82
2021/12/20 04:54:52;;;;;;;8.93;2.08;;;2.10;99.90;;;;;;5045921;28;20462;-81
2021/12/20 04:57:19;;;;;;;10.30;3.10;;;2.10;99.90;;;;;;5043874;28;20480;-81
2021/12/20 04:59:45;;;;;;;11.82;3.22;;;2.10;99.90;;;;;;5040256;28;20044;-82
2021/12/20 05:02:12;;;;;;;10.93;2.00;;;2.00;99.90;;;;;;5043144;28;20053;-81
2021/12/20 05:04:38;;;;;;;9.35;2.90;;;2.00;99.90;;;;;;5039903;28;20059;-82
2021/12/20 05:07:05;;;;;;;17.10;2.97;;;2.00;99.90;;;;;;5049961;28;20037;-82
2021/12/20 05:09:37;;;;;;;6.70;2.83;;;2.00;99.90;;;;;;5043894;28;20041;-82
2021/12/20 05:12:11;;;;;;;15.07;2.70;;;2.00;99.90;;;;;;5038023;28;20049;-82
2021/12/20 05:14:37;;;;;;;6.68;2.13;;;2.00;99.90;;;;;;5040604;28;20057;-81
2021/12/20 05:17:04;;;;;;;17.80;3.97;;;2.00;99.90;;;;;;5051441;28;20053;-82
2021/12/20 05:19:30;;;;;;;10.77;3.22;;;2.00;99.90;;;;;;5046935;28;20052;-82
2021/12/20 05:21:57;;;;;;;9.82;3.47;;;1.90;99.90;;;;;;5039709;28;20045;-82
2021/12/20 05:24:23;;;;;;;19.77;3.35;;;2.00;99.90;;;;;;5039229;28;20406;-83
2021/12/20 05:26:50;;;;;;;8.57;3.67;;;1.80;99.90;;;;;;5042811;28;20044;-82
2021/12/20 05:29:16;;;;;;;15.48;3.42;;;1.80;99.90;;;;;;5037390;28;20056;-82
2021/12/20 05:31:43;;;;;;;15.57;3.80;;;1.80;99.90;;;;;;5048958;28;20052;-82
2021/12/20 05:34:09;;;;;;;10.32;3.00;;;1.80;99.90;;;;;;5041771;28;20049;-82
2021/12/20 05:36:36;;;;;;;7.22;2.78;;;1.80;99.90;;;;;;5052140;28;20053;-81
2021/12/20 05:39:03;;;;;;;6.95;3.25;;;1.80;99.90;;;;;;5041672;28;20412;-82
2021/12/20 05:41:29;;;;;;;5.57;2.45;;;1.80;99.90;;;;;;5037532;28;20072;-82
2021/12/20 05:43:56;;;;;;;3.40;1.65;;;1.70;99.90;;;;;;5046424;28;20498;-82
2021/12/20 05:46:22;;;;;;;4.32;1.92;;;1.70;99.90;;;;;;5040843;28;20060;-82
2021/12/20 05:48:49;;;;;;;2.80;1.45;;;1.70;99.90;;;;;;5040850;28;20053;-82
2021/12/20 05:51:15;;;;;;;3.00;1.70;;;1.70;99.90;;;;;;5047007;28;20041;-82
2021/12/20 05:53:42;;;;;;;3.72;2.25;;;1.70;99.90;;;;;;5040672;28;20052;-82
2021/12/20 05:56:08;;;;;;;3.03;1.77;;;1.70;99.90;;;;;;5044706;28;20048;-82
2021/12/20 05:58:35;;;;;;;8.77;1.73;;;1.60;99.90;;;;;;5035473;28;20045;-82
2021/12/20 06:01:01;;;;;;;5.70;2.25;;;1.70;99.90;;;;;;5034604;28;20049;-82
2021/12/20 06:03:28;;;;;;;5.75;1.95;;;1.60;99.90;;;;;;5048094;28;20052;-82
2021/12/20 06:05:54;;;;;;;4.80;1.98;;;1.60;99.90;;;;;;5045353;28;20049;-83
2021/12/20 06:08:21;;;;;;;6.75;2.53;;;1.60;99.90;;;;;;5031015;28;20413;-83
2021/12/20 06:10:48;;;;;;;6.10;1.60;;;1.60;99.90;;;;;;5046500;28;20060;-83
2021/12/20 06:13:14;;;;;;;6.22;2.08;;;1.60;99.90;;;;;;5037310;28;20056;-83
2021/12/20 06:15:41;;;;;;;6.55;2.15;;;1.50;99.90;;;;;;5038961;28;20247;-83
2021/12/20 06:18:07;;;;;;;7.95;2.53;;;1.50;99.90;;;;;;5053230;28;20049;-83
2021/12/20 06:20:34;;;;;;;4.88;1.85;;;1.40;99.90;;;;;;5035294;28;20048;-82
2021/12/20 06:23:00;;;;;;;15.82;2.72;;;1.40;99.90;;;;;;5040491;28;20056;-82
2021/12/20 06:25:27;;;;;;;9.20;2.70;;;1.40;99.90;;;;;;5048702;28;20100;-83
2021/12/20 06:27:53;;;;;;;37.38;3.40;;;1.40;99.90;;;;;;5048446;28;20057;-82
2021/12/20 06:30:20;;;;;;;4.82;2.00;;;1.40;99.90;;;;;;5042205;28;20049;-83
2021/12/20 06:32:46;;;;;;;10.82;1.70;;;1.30;99.90;;;;;;5040745;28;20057;-83
2021/12/20 06:35:13;;;;;;;2.78;1.05;;;1.30;99.90;;;;;;5050000;28;20050;-83
2021/12/20 06:37:40;;;;;;;4.18;1.83;;;1.30;99.90;;;;;;5045096;28;20554;-83
2021/12/20 06:40:06;;;;;;;2.30;1.05;;;1.30;99.90;;;;;;5041975;28;20049;-83
2021/12/20 06:42:37;;;;;;;1.85;0.90;;;1.30;99.90;;;;;;5043209;28;20049;-83
2021/12/20 06:45:04;;;;;;;79.38;4.95;;;1.20;99.90;;;;;;5051313;28;20049;-83
2021/12/20 06:47:30;;;;;;;52.45;3.83;;;1.20;99.90;;;;;;5035200;28;20077;-83
2021/12/20 06:49:57;;;;;;;71.50;4.90;;;1.20;99.90;;;;;;5034089;28;20057;-84
2021/12/20 06:52:24;;;;;;;0.77;0.77;;;1.20;99.90;;;;;;5033573;28;20052;-85
2021/12/20 06:54:52;;;;;;;1.00;0.70;;;1.10;99.90;;;;;;5034548;28;20136;-86
2021/12/20 06:57:20;;;;;;;0.68;0.65;;;1.10;99.90;;;;;;5032736;28;20045;-85
2021/12/20 06:59:46;;;;;;;0.68;0.40;;;1.10;99.90;;;;;;5035742;28;20084;-85
2021/12/20 07:02:13;;;;;;;2.00;0.55;;;1.10;99.90;;;;;;5035792;28;20049;-84
2021/12/20 07:04:39;;;;;;;1.98;0.85;;;1.10;99.90;;;;;;5035778;28;20053;-84
2021/12/20 07:07:06;;;;;;;38.15;2.33;;;1.10;99.90;;;;;;5037545;28;20049;-82
2021/12/20 07:09:32;;;;;;;1.58;0.88;;;1.10;99.90;;;;;;5035672;28;20060;-85
2021/12/20 07:11:59;;;;;;;1.65;1.25;;;1.00;99.90;;;;;;5033856;28;20075;-85
2021/12/20 07:14:27;;;;;;;1.10;0.80;;;1.00;99.90;;;;;;5031369;28;20171;-86
2021/12/20 07:16:53;;;;;;;2.20;1.13;;;1.10;99.90;;;;;;5035579;28;20072;-86
2021/12/20 07:19:20;;;;;;;103.88;7.45;;;1.00;99.90;;;;;;5034639;28;20056;-86
2021/12/20 07:21:46;;;;;;;44.20;3.70;;;1.10;99.90;;;;;;5047154;28;20049;-89
2021/12/20 07:24:13;;;;;;;2.78;1.00;;;1.00;99.90;;;;;;5035284;28;20046;-85
2021/12/20 07:26:39;;;;;;;1.00;0.80;;;1.00;99.90;;;;;;5033832;28;20440;-85
2021/12/20 07:29:06;;;;;;;1.25;0.95;;;1.00;99.90;;;;;;5037628;28;20154;-82
2021/12/20 07:31:33;;;;;;;3.00;1.35;;;0.90;99.90;;;;;;5035218;28;20052;-85
2021/12/20 07:33:59;;;;;;;4.90;1.65;;;1.00;99.90;;;;;;5038950;28;20045;-84
2021/12/20 07:36:26;;;;;;;1.30;0.90;;;0.90;99.90;;;;;;5037924;28;20051;-85
2021/12/20 07:38:52;;;;;;;5.78;2.05;;;0.90;99.90;;;;;;5035563;28;20057;-85
2021/12/20 07:41:19;;;;;;;62.28;4.03;;;0.80;99.90;;;;;;5033014;28;20041;-84
2021/12/20 07:43:46;;;;;;;29.55;2.42;;;0.80;99.90;;;;;;5038439;28;20057;-84
2021/12/20 07:46:12;;;;;;;1.27;1.17;;;0.70;99.90;;;;;;5036149;28;20080;-84
2021/12/20 07:48:39;;;;;;;2.13;1.23;;;0.70;99.90;;;;;;5035126;28;20068;-85
2021/12/20 07:51:05;;;;;;;1.00;0.80;;;0.70;99.90;;;;;;5036821;28;20046;-84
2021/12/20 07:53:32;;;;;;;1.65;1.10;;;0.70;99.90;;;;;;5034378;28;20188;-85
2021/12/20 07:55:58;;;;;;;2.90;0.80;;;0.70;99.90;;;;;;5034600;28;20128;-84
2021/12/20 07:58:25;;;;;;;1.70;1.23;;;0.70;99.90;;;;;;5039022;28;20056;-85
2021/12/20 08:00:51;;;;;;;100.25;6.45;;;0.70;99.90;;;;;;5036953;28;20469;-84
2021/12/20 08:03:18;;;;;;;6.72;1.35;;;0.70;99.90;;;;;;5039788;28;20045;-84
2021/12/20 08:05:44;;;;;;;107.18;9.18;;;0.70;99.90;;;;;;5035451;28;20053;-84
2021/12/20 08:08:11;;;;;;;89.40;5.88;;;0.80;99.90;;;;;;5039883;28;20045;-84
2021/12/20 08:10:37;;;;;;;279.45;19.90;;;0.90;99.90;;;;;;5035537;28;20052;-83
2021/12/20 08:13:04;;;;;;;140.25;8.80;;;0.70;99.90;;;;;;5037997;28;20374;-85
2021/12/20 08:15:30;;;;;;;56.38;5.30;;;0.60;99.90;;;;;;5033336;28;20049;-86
2021/12/20 08:17:57;;;;;;;64.15;6.57;;;0.70;99.90;;;;;;5040657;28;20107;-85
2021/12/20 08:20:24;;;;;;;185.40;17.73;;;0.80;99.90;;;;;;5033212;28;20052;-85
2021/12/20 08:22:50;;;;;;;181.18;21.13;;;0.60;99.90;;;;;;5034310;28;20061;-85
2021/12/20 08:25:18;;;;;;;239.43;20.52;;;0.40;99.90;;;;;;5034569;28;20053;-84
2021/12/20 08:27:44;;;;;;;128.02;14.25;;;0.40;99.90;;;;;;5034347;28;20459;-85
2021/12/20 08:30:11;;;;;;;164.73;21.95;;;0.40;99.90;;;;;;5034258;28;20401;-83
2021/12/20 08:32:38;;;;;;;75.07;9.73;;;0.40;99.90;;;;;;5032414;28;20057;-85
2021/12/20 08:35:04;;;;;;;110.68;11.90;;;0.30;99.90;;;;;;5034260;28;20088;-85
2021/12/20 08:37:31;;;;;;;55.55;8.93;;;0.30;99.90;;;;;;5036598;28;20045;-85
2021/12/20 08:39:57;;;;;;;87.50;10.50;;;0.40;99.90;;;;;;5035989;28;20045;-83
2021/12/20 08:42:24;;;;;;;90.97;8.43;;;0.40;99.90;;;;;;5033124;28;20048;-85
2021/12/20 08:44:50;;;;;;;35.80;5.68;;;0.30;99.90;;;;;;5037591;28;20049;-85
2021/12/20 08:47:17;;;;;;;9.30;4.25;;;0.30;99.90;;;;;;5034978;28;20052;-85
2021/12/20 08:49:43;;;;;;;76.57;6.70;;;0.40;99.90;;;;;;5033951;28;20041;-87
2021/12/20 08:52:10;;;;;;;12.10;4.50;;;0.40;99.90;;;;;;5032517;28;20053;-85
2021/12/20 08:54:36;;;;;;;57.28;5.82;;;0.60;99.90;;;;;;5033810;28;20072;-87
2021/12/20 08:57:03;;;;;;;47.03;5.07;;;0.60;99.90;;;;;;5036732;28;20060;-83
2021/12/20 08:59:31;;;;;;;17.05;4.55;;;0.70;99.90;;;;;;5047806;28;20045;-83
2021/12/20 09:01:59;;;;;;;15.75;5.07;;;0.80;99.90;;;;;;5050767;28;20127;-83
2021/12/20 09:04:25;;;;;;;12.57;4.85;;;1.00;99.90;;;;;;5049679;28;20140;-84
2021/12/20 09:06:52;;;;;;;21.55;5.60;;;1.10;99.90;;;;;;5033893;28;20052;-84
2021/12/20 09:09:18;;;;;;;7.40;3.78;;;1.20;99.90;;;;;;5029983;28;20048;-82
2021/12/20 09:11:45;;;;;;;14.60;4.57;;;1.20;99.90;;;;;;5033455;28;20064;-84
2021/12/20 09:14:12;;;;;;;5.63;3.63;;;1.40;99.90;;;;;;5033597;28;20055;-82
2021/12/20 09:16:38;;;;;;;15.18;4.38;;;1.50;99.90;;;;;;5033660;28;20049;-82
2021/12/20 09:19:05;;;;;;;8.02;3.40;;;1.50;99.90;;;;;;5039575;28;20049;-82
2021/12/20 09:21:31;;;;;;;10.38;3.17;;;1.60;99.90;;;;;;5042559;28;20045;-82
2021/12/20 09:23:58;;;;;;;7.25;2.30;;;1.70;99.90;;;;;;5047416;28;20059;-82
2021/12/20 09:26:25;;;;;;;7.07;2.97;;;1.80;99.90;;;;;;5042799;28;20053;-82
2021/12/20 09:28:52;;;;;;;4.20;2.47;;;1.90;99.90;;;;;;5050730;28;20050;-81
2021/12/20 09:31:18;;;;;;;5.50;2.58;;;1.90;99.90;;;;;;5037353;28;20128;-81
2021/12/20 09:33:45;;;;;;;5.82;2.33;;;2.00;99.90;;;;;;5035895;28;20938;-81
2021/12/20 09:36:11;;;;;;;4.90;3.05;;;2.10;99.90;;;;;;5046592;28;20080;-81
2021/12/20 09:38:38;;;;;;;6.75;3.67;;;2.20;99.90;;;;;;5034468;28;20071;-81
2021/12/20 09:41:17;;;;;;;7.25;2.85;;;2.30;99.90;;;;;;5031972;28;20060;-81
2021/12/20 09:43:44;;;;;;;6.10;3.72;;;2.40;99.90;;;;;;5033152;28;20053;-81
2021/12/20 09:46:10;;;;;;;6.53;3.13;;;2.40;99.90;;;;;;5032261;28;20053;-81
2021/12/20 09:48:37;;;;;;;8.02;4.05;;;2.50;99.90;;;;;;5032878;28;20045;-82
2021/12/20 09:51:03;;;;;;;6.35;3.60;;;2.60;99.90;;;;;;5035507;28;20064;-81
2021/12/20 09:53:30;;;;;;;5.00;3.10;;;2.70;99.90;;;;;;5032086;28;20056;-81
2021/12/20 09:55:56;;;;;;;6.63;3.72;;;2.70;99.90;;;;;;5039447;28;20053;-81
2021/12/20 09:58:23;;;;;;;7.60;3.60;;;2.90;99.90;;;;;;5034363;28;20053;-81
2021/12/20 10:00:49;;;;;;;9.50;3.90;;;3.00;99.90;;;;;;5035982;28;20053;-81
2021/12/20 10:03:16;;;;;;;12.68;3.83;;;3.10;99.90;;;;;;5034805;28;20045;-81
2021/12/20 10:05:42;;;;;;;10.18;4.15;;;3.10;99.90;;;;;;5040032;28;20045;-82
2021/12/20 10:08:14;;;;;;;6.10;4.65;;;3.20;99.90;;;;;;5044473;28;20048;-81
2021/12/20 10:10:41;;;;;;;6.28;4.35;;;3.30;99.90;;;;;;5041928;28;20053;-81
2021/12/20 10:13:07;;;;;;;5.38;3.42;;;3.40;99.90;;;;;;5038263;28;20064;-81
2021/12/20 10:15:34;;;;;;;14.48;4.15;;;3.40;99.90;;;;;;5042075;28;20045;-81
2021/12/20 10:18:01;;;;;;;14.73;4.80;;;3.60;99.90;;;;;;5044136;28;20045;-81
2021/12/20 10:20:27;;;;;;;5.15;3.70;;;3.70;99.90;;;;;;5047770;28;20060;-81
2021/12/20 10:22:54;;;;;;;9.15;3.78;;;3.80;99.90;;;;;;5027389;28;20057;-84
2021/12/20 10:25:20;;;;;;;7.55;3.50;;;3.90;99.90;;;;;;5038316;28;20044;-82
2021/12/20 10:27:47;;;;;;;9.63;3.95;;;3.90;99.90;;;;;;5046613;28;20115;-82
2021/12/20 10:30:13;;;;;;;9.50;4.72;;;4.10;99.90;;;;;;5036530;28;20057;-81
2021/12/20 10:32:40;;;;;;;15.00;4.28;;;4.10;99.90;;;;;;5032915;28;20121;-82
2021/12/20 10:35:06;;;;;;;12.45;4.00;;;4.20;99.90;;;;;;5037729;28;20057;-81
2021/12/20 10:37:33;;;;;;;9.02;3.08;;;4.20;99.90;;;;;;5044796;28;20060;-82
2021/12/20 10:39:59;;;;;;;8.45;3.33;;;4.30;99.90;;;;;;5039272;28;20053;-82
2021/12/20 10:42:29;;;;;;;10.95;3.45;;;4.30;99.90;;;;;;5046115;28;20052;-82
2021/12/20 10:44:56;;;;;;;11.02;3.38;;;4.40;99.90;;;;;;5047886;28;20758;-82
2021/12/20 10:47:22;;;;;;;16.63;4.18;;;4.40;99.90;;;;;;5039722;28;20481;-82
2021/12/20 10:49:49;;;;;;;14.75;4.03;;;4.50;99.90;;;;;;5038149;28;20056;-82
2021/12/20 10:52:18;;;;;;;14.45;5.03;;;4.50;99.90;;;;;;5043673;28;20049;-82
2021/12/20 10:54:45;;;;;;;10.95;3.40;;;4.60;99.90;;;;;;5042987;28;20057;-82
2021/12/20 10:57:12;;;;;;;13.70;4.00;;;4.60;99.90;;;;;;5047138;28;20056;-82
2021/12/20 10:59:38;;;;;;;6.72;3.97;;;4.70;99.90;;;;;;5036477;28;20053;-82
2021/12/20 11:04:51;;;;;;;14.30;4.00;;;4.90;99.90;;;;;;5023143;28;20075;-82
2021/12/20 11:10:03;;;;;;;8.55;4.00;;;5.00;99.90;;;;;;5046627;28;20046;-82
2021/12/20 11:12:31;;;;;;;20.20;4.57;;;5.00;99.90;;;;;;5039308;28;20099;-82
2021/12/20 11:14:59;;;;;;;9.25;4.13;;;5.10;99.90;;;;;;5043485;28;20102;-82
2021/12/20 11:17:26;;;;;;;8.38;2.92;;;5.20;99.90;;;;;;5050274;28;20060;-82
2021/12/20 11:19:52;;;;;;;9.45;4.25;;;5.20;99.90;;;;;;5055399;28;20068;-82
2021/12/20 11:22:20;;;;;;;12.02;3.30;;;5.30;99.90;;;;;;5037185;28;20451;-82
2021/12/20 11:24:49;;;;;;;9.27;3.90;;;5.40;99.90;;;;;;5038109;28;20342;-83
2021/12/20 11:27:15;;;;;;;12.20;3.80;;;5.40;99.90;;;;;;5051843;28;20056;-82
2021/12/20 11:29:42;;;;;;;9.60;3.63;;;5.40;99.90;;;;;;5036965;28;20054;-83
2021/12/20 11:32:09;;;;;;;17.75;4.38;;;5.50;99.90;;;;;;5052175;28;20049;-82
2021/12/20 11:34:37;;;;;;;11.82;3.70;;;5.60;99.90;;;;;;5046409;28;20135;-83
2021/12/20 11:37:04;;;;;;;16.20;3.50;;;5.60;99.90;;;;;;5038851;28;20441;-83
2021/12/20 11:39:31;;;;;;;7.43;3.47;;;5.70;99.90;;;;;;5036824;28;20063;-85
2021/12/20 11:41:57;;;;;;;8.55;3.78;;;5.70;99.90;;;;;;5035833;28;20057;-83
2021/12/20 11:44:24;;;;;;;9.00;3.38;;;5.80;99.90;;;;;;5033715;28;20049;-83
2021/12/20 11:46:50;;;;;;;14.55;3.78;;;5.80;99.90;;;;;;5075841;28;20090;-83
2021/12/20 11:49:17;;;;;;;11.25;3.60;;;5.90;99.90;;;;;;5044860;28;20050;-83
2021/12/20 11:51:43;;;;;;;8.02;2.03;;;5.90;99.90;;;;;;5039432;28;20053;-83
2021/12/20 11:54:10;;;;;;;11.05;3.40;;;5.80;99.90;;;;;;5033846;28;20057;-82
2021/12/20 11:56:37;;;;;;;6.20;2.72;;;5.80;99.90;;;;;;5033488;28;20393;-86
2021/12/20 11:59:04;;;;;;;16.33;3.35;;;5.80;99.90;;;;;;5035925;28;20096;-85
2021/12/20 12:01:30;;;;;;;9.57;3.63;;;5.90;99.90;;;;;;5041736;28;20088;-83
2021/12/20 12:03:57;;;;;;;18.60;3.03;;;6.00;99.90;;;;;;5039176;28;20045;-85
2021/12/20 12:06:23;;;;;;;4.57;2.85;;;6.00;99.90;;;;;;5038708;28;20052;-85
2021/12/20 12:08:51;;;;;;;5.85;2.80;;;6.00;99.90;;;;;;5038171;28;20049;-85
2021/12/20 12:11:17;;;;;;;7.72;3.22;;;6.00;99.90;;;;;;5038828;28;20064;-83
2021/12/20 12:13:45;;;;;;;11.48;3.17;;;6.10;99.90;;;;;;5038399;28;20049;-84
2021/12/20 12:16:26;;;;;;;10.80;2.58;;;6.10;99.90;;;;;;5055480;28;20052;-85
2021/12/20 12:18:53;;;;;;;;;;;6.20;99.90;;;;;;5040939;28;20133;-84
2021/12/20 12:21:19;;;;;;;5.38;1.85;;;6.10;99.90;;;;;;5049851;28;19921;-85
2021/12/20 12:23:46;;;;;;;4.95;1.77;;;6.10;99.90;;;;;;5045135;28;20408;-84
2021/12/20 12:26:12;;;;;;;3.67;1.95;;;6.10;99.90;;;;;;5045473;28;20068;-84
2021/12/20 12:28:39;;;;;;;4.75;2.40;;;6.00;99.90;;;;;;5044582;28;20484;-84
2021/12/20 12:31:05;;;;;;;5.55;2.22;;;6.10;99.90;;;;;;5047861;28;20060;-84
2021/12/20 12:33:32;;;;;;;4.63;2.15;;;6.00;99.90;;;;;;5049647;28;20045;-84
2021/12/20 12:35:59;;;;;;;5.55;1.77;;;6.10;99.90;;;;;;5035431;28;20057;-84
2021/12/20 12:38:27;;;;;;;2.42;1.83;;;6.10;99.90;;;;;;5042132;28;20077;-85
2021/12/20 12:40:53;;;;;;;4.75;2.33;;;6.10;99.90;;;;;;5033739;28;20569;-84
2021/12/20 12:43:21;;;;;;;3.25;1.95;;;6.10;99.90;;;;;;5034391;28;20038;-83
2021/12/20 12:45:48;;;;;;;3.38;1.77;;;6.10;99.90;;;;;;5033786;28;20041;-85
2021/12/20 12:48:14;;;;;;;6.50;1.60;;;5.90;99.90;;;;;;5034766;28;20045;-84
2021/12/20 12:50:41;;;;;;;6.93;1.63;;;6.00;99.90;;;;;;5032927;28;20041;-85
2021/12/20 12:53:07;;;;;;;4.43;1.40;;;6.00;99.90;;;;;;5035048;28;20041;-85
2021/12/20 12:55:34;;;;;;;11.82;2.55;;;6.00;99.90;;;;;;5033682;28;20045;-85
2021/12/20 12:58:00;;;;;;;10.45;2.25;;;6.10;99.90;;;;;;5039319;28;20469;-85
2021/12/20 13:00:27;;;;;;;17.45;2.20;;;6.10;99.90;;;;;;5032357;28;20045;-85
2021/12/20 13:02:53;;;;;;;5.95;1.38;;;6.10;99.90;;;;;;5043419;28;20053;-84